createdAt,value
2023-05-17T00:00:12.015Z,0.00
2023-05-17T00:01:26.935Z,0.00
2023-05-17T00:02:41.917Z,0.00
2023-05-17T00:03:56.834Z,0.00
2023-05-17T00:05:11.790Z,0.00
2023-05-17T00:06:26.873Z,0.00
2023-05-17T00:07:41.935Z,0.00
2023-05-17T00:08:56.971Z,0.00
2023-05-17T00:10:11.927Z,0.00
2023-05-17T00:11:26.886Z,0.00
2023-05-17T00:12:41.840Z,0.00
2023-05-17T00:13:56.784Z,0.00
2023-05-17T00:15:11.735Z,0.00
2023-05-17T00:16:26.700Z,0.00
2023-05-17T00:17:41.756Z,0.00
2023-05-17T00:18:56.809Z,0.00
2023-05-17T00:20:11.789Z,0.00
2023-05-17T00:21:26.737Z,0.00
2023-05-17T00:22:41.687Z,0.00
2023-05-17T00:23:56.627Z,0.00
2023-05-17T00:25:11.571Z,0.00
2023-05-17T00:26:26.528Z,0.00
2023-05-17T00:27:41.483Z,0.00
2023-05-17T00:28:56.467Z,0.00
2023-05-17T00:30:11.407Z,0.00
2023-05-17T00:31:26.361Z,0.00
2023-05-17T00:32:41.335Z,0.00
2023-05-17T00:33:56.337Z,0.00
2023-05-17T00:35:11.272Z,0.00
2023-05-17T00:36:26.280Z,0.00
2023-05-17T00:37:41.224Z,0.00
2023-05-17T00:38:56.159Z,0.00
2023-05-17T00:40:11.114Z,0.00
2023-05-17T00:41:26.107Z,0.00
2023-05-17T00:42:41.035Z,0.00
2023-05-17T00:43:55.979Z,0.00
2023-05-17T00:45:10.921Z,0.00
2023-05-17T00:46:25.880Z,0.00
2023-05-17T00:47:40.961Z,0.00
2023-05-17T00:48:55.967Z,0.00
2023-05-17T00:50:10.923Z,0.00
2023-05-17T00:51:25.885Z,0.00
2023-05-17T00:52:40.885Z,0.00
2023-05-17T00:53:55.843Z,0.00
2023-05-17T00:55:10.809Z,0.00
2023-05-17T00:56:25.771Z,0.00
2023-05-17T00:57:40.706Z,0.00
2023-05-17T00:58:55.680Z,0.00
2023-05-17T01:00:10.614Z,0.00
2023-05-17T01:01:32.428Z,0.00
2023-05-17T01:02:47.473Z,0.00
2023-05-17T01:04:02.482Z,0.00
2023-05-17T01:05:17.476Z,0.00
2023-05-17T01:06:32.424Z,0.00
2023-05-17T01:07:47.362Z,0.00
2023-05-17T01:09:02.311Z,0.00
2023-05-17T01:10:17.252Z,0.00
2023-05-17T01:11:32.229Z,0.00
2023-05-17T01:12:47.265Z,0.00
2023-05-17T01:14:02.258Z,0.00
2023-05-17T01:15:17.189Z,0.00
2023-05-17T01:16:32.129Z,0.00
2023-05-17T01:17:47.142Z,0.00
2023-05-17T01:19:02.291Z,0.00
2023-05-17T01:20:17.281Z,0.00
2023-05-17T01:21:32.189Z,0.00
2023-05-17T01:22:47.142Z,0.00
2023-05-17T01:24:02.124Z,0.00
2023-05-17T01:25:17.059Z,0.00
2023-05-17T01:26:31.989Z,0.00
2023-05-17T01:27:46.926Z,0.00
2023-05-17T01:29:01.930Z,0.00
2023-05-17T01:30:16.855Z,0.00
2023-05-17T01:31:31.833Z,0.00
2023-05-17T01:32:46.915Z,0.00
2023-05-17T01:34:02.010Z,0.00
2023-05-17T01:35:16.946Z,0.00
2023-05-17T01:36:31.887Z,0.00
2023-05-17T01:37:46.834Z,0.00
2023-05-17T01:39:01.793Z,0.00
2023-05-17T01:40:16.742Z,0.00
2023-05-17T01:41:31.744Z,0.00
2023-05-17T01:42:46.706Z,0.00
2023-05-17T01:44:01.666Z,0.00
2023-05-17T01:45:16.603Z,0.00
2023-05-17T01:46:31.566Z,0.00
2023-05-17T01:47:46.565Z,0.00
2023-05-17T01:49:01.603Z,0.00
2023-05-17T01:50:16.585Z,0.00
2023-05-17T01:51:31.546Z,0.00
2023-05-17T01:52:46.486Z,0.00
2023-05-17T01:54:01.467Z,0.00
2023-05-17T01:55:16.417Z,0.00
2023-05-17T01:56:31.345Z,0.00
2023-05-17T01:57:46.316Z,0.00
2023-05-17T01:59:01.241Z,0.00
2023-05-17T02:00:16.246Z,0.00
2023-05-17T02:01:31.188Z,0.00
2023-05-17T02:02:46.153Z,0.00
2023-05-17T02:04:01.279Z,0.00
2023-05-17T02:05:16.347Z,0.00
2023-05-17T02:06:31.279Z,0.00
2023-05-17T02:07:46.248Z,0.00
2023-05-17T02:09:01.198Z,0.00
2023-05-17T02:10:16.156Z,0.00
2023-05-17T02:11:31.106Z,0.00
2023-05-17T02:12:46.109Z,0.00
2023-05-17T02:14:01.018Z,0.00
2023-05-17T02:15:15.976Z,0.00
2023-05-17T02:16:30.923Z,0.00
2023-05-17T02:17:46.081Z,0.00
2023-05-17T02:19:01.133Z,0.00
2023-05-17T02:20:16.059Z,0.00
2023-05-17T02:21:31.029Z,0.00
2023-05-17T02:22:45.972Z,0.00
2023-05-17T02:24:00.953Z,0.00
2023-05-17T02:25:15.871Z,0.00
2023-05-17T02:26:30.856Z,0.00
2023-05-17T02:27:45.804Z,0.00
2023-05-17T02:29:00.739Z,0.00
2023-05-17T02:30:17.685Z,0.00
2023-05-17T02:31:33.136Z,0.00
2023-05-17T02:32:48.107Z,0.00
2023-05-17T02:34:03.312Z,0.00
2023-05-17T02:35:18.245Z,0.00
2023-05-17T02:36:33.285Z,0.00
2023-05-17T02:37:48.232Z,0.00
2023-05-17T02:39:03.171Z,0.00
2023-05-17T02:40:18.143Z,0.00
2023-05-17T02:41:33.110Z,0.00
2023-05-17T02:42:48.107Z,0.00
2023-05-17T02:44:03.062Z,0.00
2023-05-17T02:45:18.017Z,0.00
2023-05-17T02:46:32.967Z,0.00
2023-05-17T02:47:48.084Z,0.00
2023-05-17T02:49:03.199Z,0.00
2023-05-17T02:50:18.121Z,0.00
2023-05-17T02:51:33.078Z,0.00
2023-05-17T02:52:48.053Z,0.00
2023-05-17T02:54:02.978Z,0.00
2023-05-17T02:55:17.965Z,0.00
2023-05-17T02:56:33.006Z,0.00
2023-05-17T02:57:47.986Z,0.00
2023-05-17T02:59:02.924Z,0.00
2023-05-17T03:00:17.894Z,1.00
2023-05-17T03:01:32.842Z,0.00
2023-05-17T03:02:47.900Z,0.00
2023-05-17T03:04:02.960Z,1.00
2023-05-17T03:05:17.849Z,1.00
2023-05-17T03:06:32.756Z,1.00
2023-05-17T03:07:47.647Z,1.00
2023-05-17T03:09:02.542Z,2.00
2023-05-17T03:10:17.427Z,2.00
2023-05-17T03:11:32.366Z,1.00
2023-05-17T03:12:47.227Z,1.00
2023-05-17T03:14:02.121Z,4.00
2023-05-17T03:15:17.059Z,3.00
2023-05-17T03:16:31.933Z,5.00
2023-05-17T03:17:46.865Z,10.00
2023-05-17T03:19:01.989Z,11.00
2023-05-17T03:20:17.076Z,11.00
2023-05-17T03:21:31.963Z,11.00
2023-05-17T03:22:46.870Z,19.00
2023-05-17T03:24:01.768Z,22.00
2023-05-17T03:25:16.670Z,24.00
2023-05-17T03:26:31.568Z,28.00
2023-05-17T03:27:46.539Z,37.00
2023-05-17T03:29:01.455Z,43.00
2023-05-17T03:30:16.352Z,52.00
2023-05-17T03:31:31.260Z,61.00
2023-05-17T03:32:46.286Z,71.00
2023-05-17T03:34:01.292Z,81.00
2023-05-17T03:35:16.262Z,91.00
2023-05-17T03:36:31.179Z,104.00
2023-05-17T03:37:46.044Z,119.00
2023-05-17T03:39:00.945Z,132.00
2023-05-17T03:40:15.843Z,144.00
2023-05-17T03:41:30.751Z,158.00
2023-05-17T03:42:45.661Z,178.00
2023-05-17T03:44:00.527Z,196.00
2023-05-17T03:45:15.415Z,211.00
2023-05-17T03:46:30.318Z,227.00
2023-05-17T03:47:45.252Z,252.00
2023-05-17T03:49:00.200Z,277.00
2023-05-17T03:50:15.106Z,299.00
2023-05-17T03:51:29.991Z,322.00
2023-05-17T03:52:44.934Z,345.00
2023-05-17T03:53:59.874Z,370.00
2023-05-17T03:55:14.759Z,391.00
2023-05-17T03:56:29.649Z,414.00
2023-05-17T03:57:44.539Z,445.00
2023-05-17T03:58:59.454Z,474.00
2023-05-17T04:00:14.400Z,506.00
2023-05-17T04:01:29.299Z,541.00
2023-05-17T04:02:44.211Z,574.00
2023-05-17T04:03:59.196Z,609.00
2023-05-17T04:05:14.076Z,648.00
2023-05-17T04:06:29.005Z,691.00
2023-05-17T04:07:43.906Z,730.00
2023-05-17T04:08:58.789Z,770.00
2023-05-17T04:10:13.703Z,812.00
2023-05-17T04:11:28.598Z,855.00
2023-05-17T04:12:43.515Z,898.00
2023-05-17T04:13:58.410Z,942.00
2023-05-17T04:15:13.311Z,983.00
2023-05-17T04:16:28.200Z,1031.00
2023-05-17T04:17:43.132Z,1074.00
2023-05-17T04:18:58.107Z,1120.00
2023-05-17T04:20:13.031Z,1175.00
2023-05-17T04:21:27.927Z,1228.00
2023-05-17T04:22:42.876Z,1282.00
2023-05-17T04:23:57.752Z,1331.00
2023-05-17T04:25:12.887Z,1396.00
2023-05-17T04:26:27.812Z,1447.00
2023-05-17T04:27:42.720Z,1507.00
2023-05-17T04:28:57.600Z,1563.00
2023-05-17T04:30:12.481Z,1626.00
2023-05-17T04:31:27.394Z,1679.00
2023-05-17T04:32:42.291Z,1748.00
2023-05-17T04:33:57.194Z,1809.00
2023-05-17T04:35:12.068Z,1863.00
2023-05-17T04:36:26.963Z,1931.00
2023-05-17T04:37:41.889Z,1989.00
2023-05-17T04:38:56.765Z,2040.00
2023-05-17T04:40:11.656Z,2104.00
2023-05-17T04:41:26.550Z,2166.00
2023-05-17T04:42:41.450Z,2237.00
2023-05-17T04:43:56.364Z,2298.00
2023-05-17T04:45:12.494Z,2352.00
2023-05-17T04:46:28.978Z,2399.00
2023-05-17T04:47:43.998Z,2451.00
2023-05-17T04:48:58.967Z,2511.00
2023-05-17T04:50:13.872Z,2557.00
2023-05-17T04:51:28.783Z,2615.00
2023-05-17T04:52:43.671Z,2673.00
2023-05-17T04:53:58.574Z,2730.00
2023-05-17T04:55:13.479Z,2796.00
2023-05-17T04:56:28.382Z,2860.00
2023-05-17T04:57:43.296Z,2929.00
2023-05-17T04:58:58.225Z,3001.00
2023-05-17T05:00:13.137Z,3069.00
2023-05-17T05:01:28.004Z,3145.00
2023-05-17T05:02:42.936Z,3218.00
2023-05-17T05:03:57.862Z,3280.00
2023-05-17T05:05:12.869Z,3348.00
2023-05-17T05:06:27.778Z,3404.00
2023-05-17T05:07:42.675Z,3474.00
2023-05-17T05:08:57.582Z,3530.00
2023-05-17T05:10:12.491Z,3595.00
2023-05-17T05:11:27.417Z,3640.00
2023-05-17T05:12:42.364Z,3704.00
2023-05-17T05:13:57.252Z,3769.00
2023-05-17T05:15:12.143Z,3811.00
2023-05-17T05:16:27.021Z,3867.00
2023-05-17T05:17:42.038Z,3917.00
2023-05-17T05:18:57.045Z,3951.00
2023-05-17T05:20:12.062Z,3999.00
2023-05-17T05:21:26.934Z,4034.00
2023-05-17T05:22:41.826Z,4087.00
2023-05-17T05:23:56.757Z,4114.00
2023-05-17T05:25:11.663Z,4172.00
2023-05-17T05:26:26.554Z,4222.00
2023-05-17T05:27:41.452Z,4277.00
2023-05-17T05:28:56.382Z,4335.00
2023-05-17T05:30:11.343Z,4379.00
2023-05-17T05:31:26.244Z,4399.00
2023-05-17T05:32:41.207Z,4477.00
2023-05-17T05:33:56.178Z,4505.00
2023-05-17T05:35:11.036Z,4560.00
2023-05-17T05:36:25.944Z,4576.00
2023-05-17T05:37:40.831Z,4603.00
2023-05-17T05:38:55.727Z,4644.00
2023-05-17T05:40:10.638Z,4679.00
2023-05-17T05:41:25.566Z,4719.00
2023-05-17T05:42:40.522Z,4771.00
2023-05-17T05:43:56.014Z,4790.00
2023-05-17T05:45:10.886Z,4821.00
2023-05-17T05:46:25.810Z,4873.00
2023-05-17T05:47:40.831Z,4876.00
2023-05-17T05:48:55.808Z,4956.00
2023-05-17T05:50:10.680Z,4962.00
2023-05-17T05:51:25.593Z,4992.00
2023-05-17T05:52:40.494Z,5035.00
2023-05-17T05:53:55.415Z,5088.00
2023-05-17T05:55:10.339Z,5075.00
2023-05-17T05:56:25.226Z,3806.00
2023-05-17T05:57:40.121Z,2729.00
2023-05-17T05:58:55.069Z,7877.00
2023-05-17T06:00:09.966Z,12439.00
2023-05-17T06:01:24.882Z,11727.00
2023-05-17T06:02:39.813Z,11530.00
2023-05-17T06:03:54.696Z,12020.00
2023-05-17T06:05:09.594Z,13234.00
2023-05-17T06:06:24.583Z,15629.00
2023-05-17T06:07:39.504Z,16524.00
2023-05-17T06:08:54.428Z,17253.00
2023-05-17T06:10:09.385Z,17877.00
2023-05-17T06:11:24.367Z,16117.00
2023-05-17T06:12:39.254Z,15447.00
2023-05-17T06:13:54.160Z,14420.00
2023-05-17T06:15:09.058Z,13518.00
2023-05-17T06:16:24.120Z,13984.00
2023-05-17T06:17:39.007Z,15377.00
2023-05-17T06:18:53.968Z,17754.00
2023-05-17T06:20:08.928Z,15911.00
2023-05-17T06:21:23.778Z,14901.00
2023-05-17T06:22:39.562Z,17753.00
2023-05-17T06:23:54.517Z,18277.00
2023-05-17T06:25:09.406Z,16907.00
2023-05-17T06:26:24.305Z,17177.00
2023-05-17T06:27:39.241Z,16375.00
2023-05-17T06:28:54.142Z,15793.00
2023-05-17T06:30:09.048Z,15813.00
2023-05-17T06:31:23.999Z,15428.00
2023-05-17T06:32:38.921Z,15194.00
2023-05-17T06:33:53.789Z,15321.00
2023-05-17T06:35:08.676Z,16136.00
2023-05-17T06:36:24.364Z,15733.00
2023-05-17T06:37:40.212Z,15664.00
2023-05-17T06:38:55.131Z,17846.00
2023-05-17T06:40:16.043Z,22615.00
2023-05-17T06:41:29.906Z,24950.00
2023-05-17T06:42:44.860Z,24261.00
2023-05-17T06:43:59.776Z,22376.00
2023-05-17T06:45:14.678Z,22977.00
2023-05-17T06:46:29.564Z,21322.00
2023-05-17T06:47:44.525Z,20194.00
2023-05-17T06:48:59.732Z,20398.00
2023-05-17T06:50:14.634Z,21109.00
2023-05-17T06:51:29.558Z,21766.00
2023-05-17T06:52:44.410Z,22276.00
2023-05-17T06:53:59.295Z,22795.00
2023-05-17T06:55:14.191Z,23320.00
2023-05-17T06:56:29.103Z,22986.00
2023-05-17T06:57:43.989Z,25656.00
2023-05-17T06:58:59.144Z,22630.00
2023-05-17T07:00:14.063Z,19035.00
2023-05-17T07:01:28.955Z,18770.00
2023-05-17T07:02:44.054Z,20556.00
2023-05-17T07:03:59.068Z,22346.00
2023-05-17T07:05:14.027Z,23573.00
2023-05-17T07:06:28.910Z,22783.00
2023-05-17T07:07:43.822Z,26830.00
2023-05-17T07:08:58.734Z,33512.00
2023-05-17T07:10:13.651Z,31994.00
2023-05-17T07:11:28.538Z,34493.00
2023-05-17T07:12:43.450Z,31724.00
2023-05-17T07:13:58.341Z,33434.00
2023-05-17T07:15:13.251Z,33516.00
2023-05-17T07:16:28.148Z,28765.00
2023-05-17T07:17:43.071Z,25691.00
2023-05-17T07:18:58.046Z,26600.00
2023-05-17T07:20:13.146Z,25967.00
2023-05-17T07:21:28.210Z,25862.00
2023-05-17T07:22:43.132Z,22944.00
2023-05-17T07:23:58.032Z,3935.00
2023-05-17T07:25:13.007Z,23446.00
2023-05-17T07:26:27.923Z,25455.00
2023-05-17T07:27:42.836Z,17742.00
2023-05-17T07:28:57.752Z,19603.00
2023-05-17T07:30:12.719Z,10947.00
2023-05-17T07:31:27.662Z,13118.00
2023-05-17T07:32:42.621Z,17280.00
2023-05-17T07:33:57.533Z,6710.00
2023-05-17T07:35:12.401Z,15774.00
2023-05-17T07:36:27.455Z,6863.00
2023-05-17T07:37:42.648Z,13524.00
2023-05-17T07:38:57.832Z,13511.00
2023-05-17T07:40:12.731Z,17620.00
2023-05-17T07:41:27.627Z,18749.00
2023-05-17T07:42:42.548Z,20997.00
2023-05-17T07:43:57.448Z,22684.00
2023-05-17T07:45:12.339Z,21526.00
2023-05-17T07:46:27.288Z,22457.00
2023-05-17T07:47:42.236Z,26942.00
2023-05-17T07:48:58.778Z,20314.00
2023-05-17T07:50:13.985Z,4487.00
2023-05-17T07:51:29.452Z,17193.00
2023-05-17T07:52:45.389Z,23031.00
2023-05-17T07:54:00.308Z,3835.00
2023-05-17T07:55:16.891Z,24637.00
2023-05-17T07:56:32.072Z,9527.00
2023-05-17T07:57:47.023Z,11647.00
2023-05-17T07:59:01.962Z,15410.00
2023-05-17T08:00:16.831Z,10846.00
2023-05-17T08:01:31.717Z,8203.00
2023-05-17T08:02:46.733Z,10822.00
2023-05-17T08:04:01.741Z,12370.00
2023-05-17T08:05:16.625Z,13138.00
2023-05-17T08:06:31.538Z,15219.00
2023-05-17T08:07:46.444Z,9358.00
2023-05-17T08:09:01.329Z,15142.00
2023-05-17T08:10:16.222Z,4466.00
2023-05-17T08:11:32.011Z,20376.00
2023-05-17T08:12:48.224Z,11621.00
2023-05-17T08:14:03.130Z,8932.00
2023-05-17T08:15:18.037Z,20264.00
2023-05-17T08:16:32.932Z,4854.00
2023-05-17T08:17:47.949Z,30291.00
2023-05-17T08:19:03.022Z,11393.00
2023-05-17T08:20:18.003Z,6522.00
2023-05-17T08:21:32.897Z,14853.00
2023-05-17T08:22:47.786Z,11776.00
2023-05-17T08:24:04.111Z,14082.00
2023-05-17T08:25:19.073Z,14666.00
2023-05-17T08:26:33.978Z,4717.00
2023-05-17T08:27:48.868Z,35223.00
2023-05-17T08:29:03.800Z,37077.00
2023-05-17T08:30:28.527Z,22922.00
2023-05-17T08:31:38.462Z,17150.00
2023-05-17T08:32:53.419Z,12874.00
2023-05-17T08:34:08.368Z,11608.00
2023-05-17T08:35:24.482Z,8741.00
2023-05-17T08:36:41.149Z,9274.00
2023-05-17T08:37:56.072Z,11124.00
2023-05-17T08:39:10.943Z,12160.00
2023-05-17T08:40:25.946Z,6110.00
2023-05-17T08:41:40.835Z,79085.00
2023-05-17T08:42:55.770Z,63918.00
2023-05-17T08:44:10.663Z,21171.00
2023-05-17T08:45:25.588Z,5408.00
2023-05-17T08:46:40.488Z,75277.00
2023-05-17T08:47:55.474Z,75365.00
2023-05-17T08:49:10.418Z,76218.00
2023-05-17T08:50:25.327Z,72297.00
2023-05-17T08:51:40.224Z,21566.00
2023-05-17T08:52:55.167Z,77638.00
2023-05-17T08:54:10.114Z,76260.00
2023-05-17T08:55:25.022Z,75769.00
2023-05-17T08:56:39.915Z,76629.00
2023-05-17T08:57:54.829Z,77916.00
2023-05-17T08:59:09.714Z,78308.00
2023-05-17T09:00:24.610Z,72631.00
2023-05-17T09:01:39.489Z,81550.00
2023-05-17T09:02:54.412Z,79477.00
2023-05-17T09:04:09.390Z,76693.00
2023-05-17T09:05:24.337Z,77203.00
2023-05-17T09:06:39.237Z,62270.00
2023-05-17T09:07:54.137Z,15079.00
2023-05-17T09:09:09.075Z,8581.00
2023-05-17T09:10:23.948Z,17283.00
2023-05-17T09:11:38.917Z,26382.00
2023-05-17T09:12:53.818Z,63361.00
2023-05-17T09:14:08.721Z,18265.00
2023-05-17T09:15:23.669Z,12494.00
2023-05-17T09:16:38.544Z,12029.00
2023-05-17T09:17:53.691Z,14017.00
2023-05-17T09:19:08.862Z,11779.00
2023-05-17T09:20:23.999Z,5533.00
2023-05-17T09:21:38.958Z,70836.00
2023-05-17T09:22:53.844Z,31770.00
2023-05-17T09:24:08.906Z,15796.00
2023-05-17T09:25:23.826Z,15219.00
2023-05-17T09:26:38.716Z,13683.00
2023-05-17T09:27:53.628Z,10866.00
2023-05-17T09:29:08.560Z,14625.00
2023-05-17T09:30:25.139Z,11015.00
2023-05-17T09:31:40.089Z,10817.00
2023-05-17T09:32:55.050Z,11132.00
2023-05-17T09:34:09.997Z,10861.00
2023-05-17T09:35:24.902Z,11378.00
2023-05-17T09:36:39.933Z,13776.00
2023-05-17T09:37:54.845Z,17713.00
2023-05-17T09:39:09.744Z,14804.00
2023-05-17T09:40:24.622Z,12638.00
2023-05-17T09:41:39.514Z,15798.00
2023-05-17T09:42:54.409Z,6582.00
2023-05-17T09:44:09.409Z,77996.00
2023-05-17T09:45:24.309Z,81738.00
2023-05-17T09:46:39.253Z,82158.00
2023-05-17T09:47:54.191Z,80119.00
2023-05-17T09:49:09.104Z,78896.00
2023-05-17T09:50:26.129Z,80151.00
2023-05-17T09:51:41.247Z,81051.00
2023-05-17T09:52:56.160Z,75432.00
2023-05-17T09:54:11.080Z,75020.00
2023-05-17T09:55:26.033Z,75164.00
2023-05-17T09:56:40.899Z,74932.00
2023-05-17T09:57:55.809Z,81490.00
2023-05-17T09:59:10.704Z,75836.00
2023-05-17T10:00:25.663Z,81801.00
2023-05-17T10:01:40.557Z,64177.00
2023-05-17T10:02:55.587Z,22462.00
2023-05-17T10:04:10.859Z,16547.00
2023-05-17T10:05:26.159Z,11156.00
2023-05-17T10:06:46.464Z,7760.00
2023-05-17T10:08:00.917Z,78107.00
2023-05-17T10:09:15.977Z,74825.00
2023-05-17T10:10:30.883Z,71641.00
2023-05-17T10:11:45.773Z,11525.00
2023-05-17T10:13:00.672Z,74492.00
2023-05-17T10:14:15.651Z,74593.00
2023-05-17T10:15:30.764Z,78886.00
2023-05-17T10:16:45.871Z,78853.00
2023-05-17T10:18:00.872Z,80000.00
2023-05-17T10:19:15.861Z,81740.00
2023-05-17T10:20:30.746Z,74699.00
2023-05-17T10:21:45.639Z,74443.00
2023-05-17T10:23:00.558Z,76733.00
2023-05-17T10:24:15.519Z,82336.00
2023-05-17T10:25:30.676Z,80983.00
2023-05-17T10:26:45.619Z,78921.00
2023-05-17T10:28:00.521Z,66030.00
2023-05-17T10:29:15.428Z,24615.00
2023-05-17T10:30:30.903Z,26495.00
2023-05-17T10:31:45.800Z,18649.00
2023-05-17T10:33:00.817Z,15022.00
2023-05-17T10:34:15.760Z,14168.00
2023-05-17T10:35:30.858Z,12242.00
2023-05-17T10:36:45.988Z,11840.00
2023-05-17T10:38:00.871Z,6704.00
2023-05-17T10:39:15.777Z,80806.00
2023-05-17T10:40:30.660Z,75234.00
2023-05-17T10:41:45.557Z,74921.00
2023-05-17T10:43:00.492Z,64642.00
2023-05-17T10:44:15.376Z,23120.00
2023-05-17T10:45:30.539Z,23536.00
2023-05-17T10:46:45.645Z,24711.00
2023-05-17T10:48:01.348Z,18737.00
2023-05-17T10:49:17.050Z,21809.00
2023-05-17T10:50:32.001Z,16085.00
2023-05-17T10:51:46.900Z,18307.00
2023-05-17T10:53:01.911Z,14141.00
2023-05-17T10:54:16.806Z,12025.00
2023-05-17T10:55:31.714Z,18646.00
2023-05-17T10:56:46.791Z,18802.00
2023-05-17T10:58:01.727Z,7243.00
2023-05-17T10:59:16.691Z,81603.00
2023-05-17T11:00:31.598Z,78195.00
2023-05-17T11:01:46.491Z,76654.00
2023-05-17T11:03:01.444Z,80472.00
2023-05-17T11:04:16.400Z,79246.00
2023-05-17T11:05:31.608Z,77296.00
2023-05-17T11:06:46.857Z,77931.00
2023-05-17T11:08:01.752Z,80433.00
2023-05-17T11:09:16.674Z,62413.00
2023-05-17T11:10:31.554Z,20569.00
2023-05-17T11:11:46.440Z,15784.00
2023-05-17T11:13:01.336Z,13981.00
2023-05-17T11:14:16.229Z,13043.00
2023-05-17T11:15:31.373Z,12144.00
2023-05-17T11:16:46.353Z,11890.00
2023-05-17T11:18:01.346Z,13071.00
2023-05-17T11:19:16.306Z,13169.00
2023-05-17T11:20:31.946Z,6869.00
2023-05-17T11:21:47.222Z,7176.00
2023-05-17T11:23:02.315Z,80959.00
2023-05-17T11:24:17.222Z,79986.00
2023-05-17T11:25:32.155Z,70899.00
2023-05-17T11:26:47.011Z,37085.00
2023-05-17T11:28:01.922Z,23132.00
2023-05-17T11:29:16.838Z,21750.00
2023-05-17T11:30:32.035Z,15478.00
2023-05-17T11:31:46.955Z,13991.00
2023-05-17T11:33:01.863Z,14030.00
2023-05-17T11:34:16.787Z,14324.00
2023-05-17T11:35:31.656Z,11393.00
2023-05-17T11:36:46.584Z,11031.00
2023-05-17T11:38:01.469Z,11168.00
2023-05-17T11:39:16.378Z,13041.00
2023-05-17T11:40:31.491Z,16340.00
2023-05-17T11:41:46.533Z,27953.00
2023-05-17T11:43:01.471Z,20562.00
2023-05-17T11:44:16.386Z,14990.00
2023-05-17T11:45:31.299Z,10722.00
2023-05-17T11:46:46.203Z,63936.00
2023-05-17T11:48:01.186Z,20272.00
2023-05-17T11:49:26.977Z,22709.00
2023-05-17T11:50:35.937Z,36224.00
2023-05-17T11:51:50.850Z,7170.00
2023-05-17T11:53:05.740Z,76540.00
2023-05-17T11:54:20.659Z,73751.00
2023-05-17T11:55:35.543Z,79006.00
2023-05-17T11:56:50.446Z,81552.00
2023-05-17T11:58:05.364Z,65499.00
2023-05-17T11:59:20.269Z,26778.00
2023-05-17T12:00:35.154Z,16126.00
2023-05-17T12:01:50.071Z,14509.00
2023-05-17T12:03:05.043Z,16546.00
2023-05-17T12:04:19.968Z,17203.00
2023-05-17T12:05:34.853Z,15431.00
2023-05-17T12:06:49.814Z,14188.00
2023-05-17T12:08:04.834Z,14079.00
2023-05-17T12:09:19.732Z,10984.00
2023-05-17T12:10:35.135Z,21041.00
2023-05-17T12:11:50.223Z,15141.00
2023-05-17T12:13:05.084Z,5554.00
2023-05-17T12:14:19.986Z,30261.00
2023-05-17T12:15:34.907Z,13702.00
2023-05-17T12:16:49.803Z,11381.00
2023-05-17T12:18:04.759Z,10678.00
2023-05-17T12:19:19.731Z,9576.00
2023-05-17T12:20:34.621Z,9070.00
2023-05-17T12:21:49.528Z,9093.00
2023-05-17T12:23:04.423Z,10020.00
2023-05-17T12:24:19.414Z,6051.00
2023-05-17T12:25:34.323Z,63266.00
2023-05-17T12:26:49.211Z,17854.00
2023-05-17T12:28:04.130Z,8253.00
2023-05-17T12:29:19.074Z,75034.00
2023-05-17T12:30:34.254Z,64442.00
2023-05-17T12:31:49.189Z,19936.00
2023-05-17T12:33:04.203Z,32407.00
2023-05-17T12:34:19.076Z,19907.00
2023-05-17T12:35:33.962Z,22941.00
2023-05-17T12:36:48.875Z,11046.00
2023-05-17T12:38:03.832Z,61673.00
2023-05-17T12:39:18.740Z,19172.00
2023-05-17T12:40:33.632Z,15423.00
2023-05-17T12:41:48.530Z,13901.00
2023-05-17T12:43:03.423Z,12030.00
2023-05-17T12:44:18.358Z,13106.00
2023-05-17T12:45:33.260Z,6055.00
2023-05-17T12:46:48.177Z,34805.00
2023-05-17T12:48:03.726Z,19147.00
2023-05-17T12:49:18.742Z,21128.00
2023-05-17T12:50:33.678Z,10436.00
2023-05-17T12:51:48.603Z,63628.00
2023-05-17T12:53:03.501Z,19213.00
2023-05-17T12:54:18.393Z,29138.00
2023-05-17T12:55:33.301Z,22213.00
2023-05-17T12:56:48.205Z,19856.00
2023-05-17T12:58:03.099Z,17474.00
2023-05-17T12:59:17.994Z,16481.00
2023-05-17T13:00:32.881Z,13847.00
2023-05-17T13:01:47.801Z,12647.00
2023-05-17T13:03:02.800Z,5386.00
2023-05-17T13:04:17.758Z,30501.00
2023-05-17T13:05:32.680Z,18301.00
2023-05-17T13:06:47.584Z,19947.00
2023-05-17T13:08:02.476Z,17521.00
2023-05-17T13:09:17.385Z,15685.00
2023-05-17T13:10:32.443Z,14968.00
2023-05-17T13:11:47.357Z,14613.00
2023-05-17T13:13:02.254Z,14853.00
2023-05-17T13:14:17.253Z,13762.00
2023-05-17T13:15:32.275Z,7168.00
2023-05-17T13:16:47.188Z,81451.00
2023-05-17T13:18:02.085Z,75806.00
2023-05-17T13:19:17.074Z,63934.00
2023-05-17T13:20:32.718Z,21200.00
2023-05-17T13:21:47.718Z,16939.00
2023-05-17T13:23:02.557Z,14101.00
2023-05-17T13:24:17.480Z,12094.00
2023-05-17T13:25:32.433Z,10597.00
2023-05-17T13:26:47.322Z,9119.00
2023-05-17T13:28:02.454Z,8402.00
2023-05-17T13:29:17.548Z,8334.00
2023-05-17T13:30:33.832Z,9067.00
2023-05-17T13:31:48.750Z,9829.00
2023-05-17T13:33:03.805Z,10017.00
2023-05-17T13:34:18.683Z,10005.00
2023-05-17T13:35:33.605Z,13132.00
2023-05-17T13:36:48.728Z,16570.00
2023-05-17T13:38:03.683Z,19930.00
2023-05-17T13:39:18.558Z,31167.00
2023-05-17T13:40:33.449Z,23247.00
2023-05-17T13:41:48.458Z,26672.00
2023-05-17T13:43:03.337Z,19542.00
2023-05-17T13:44:18.300Z,15998.00
2023-05-17T13:45:33.181Z,16868.00
2023-05-17T13:46:48.073Z,15363.00
2023-05-17T13:48:03.068Z,14659.00
2023-05-17T13:49:17.986Z,13297.00
2023-05-17T13:50:32.856Z,13481.00
2023-05-17T13:51:47.788Z,7643.00
2023-05-17T13:53:02.699Z,78527.00
2023-05-17T13:54:17.588Z,80575.00
2023-05-17T13:55:32.479Z,79532.00
2023-05-17T13:56:47.484Z,78383.00
2023-05-17T13:58:02.377Z,64034.00
2023-05-17T13:59:17.277Z,21138.00
2023-05-17T14:00:32.197Z,17876.00
2023-05-17T14:01:47.110Z,15656.00
2023-05-17T14:03:02.086Z,14965.00
2023-05-17T14:04:17.120Z,12947.00
2023-05-17T14:05:32.082Z,12667.00
2023-05-17T14:06:48.948Z,12781.00
2023-05-17T14:08:04.385Z,13254.00
2023-05-17T14:09:19.318Z,14041.00
2023-05-17T14:10:34.189Z,15005.00
2023-05-17T14:11:49.100Z,14205.00
2023-05-17T14:13:03.977Z,13461.00
2023-05-17T14:14:18.878Z,12846.00
2023-05-17T14:15:33.767Z,12494.00
2023-05-17T14:16:48.671Z,14489.00
2023-05-17T14:18:03.646Z,15092.00
2023-05-17T14:19:18.595Z,14710.00
2023-05-17T14:20:33.492Z,13799.00
2023-05-17T14:21:48.386Z,11827.00
2023-05-17T14:23:03.316Z,9916.00
2023-05-17T14:24:18.214Z,8734.00
2023-05-17T14:25:33.120Z,7295.00
2023-05-17T14:26:48.020Z,5997.00
2023-05-17T14:28:02.930Z,4719.00
2023-05-17T14:29:17.883Z,3980.00
2023-05-17T14:30:33.024Z,4071.00
2023-05-17T14:31:48.050Z,4954.00
2023-05-17T14:33:02.967Z,6489.00
2023-05-17T14:34:17.919Z,7656.00
2023-05-17T14:35:32.781Z,8646.00
2023-05-17T14:36:47.799Z,9596.00
2023-05-17T14:38:02.703Z,9888.00
2023-05-17T14:39:17.624Z,10538.00
2023-05-17T14:40:32.491Z,11246.00
2023-05-17T14:41:47.370Z,15650.00
2023-05-17T14:43:02.463Z,16090.00
2023-05-17T14:44:17.347Z,8682.00
2023-05-17T14:45:32.266Z,16787.00
2023-05-17T14:46:47.193Z,31379.00
2023-05-17T14:48:02.101Z,74091.00
2023-05-17T14:49:17.133Z,73576.00
2023-05-17T14:50:32.085Z,73338.00
2023-05-17T14:51:46.990Z,70985.00
2023-05-17T14:53:01.869Z,25101.00
2023-05-17T14:54:16.749Z,30417.00
2023-05-17T14:55:31.903Z,72996.00
2023-05-17T14:56:46.948Z,31811.00
2023-05-17T14:58:01.901Z,31628.00
2023-05-17T14:59:16.789Z,72014.00
2023-05-17T15:00:31.684Z,31216.00
2023-05-17T15:01:46.596Z,29747.00
2023-05-17T15:03:01.825Z,33331.00
2023-05-17T15:04:16.834Z,34516.00
2023-05-17T15:05:32.007Z,20729.00
2023-05-17T15:06:47.092Z,16342.00
2023-05-17T15:08:02.037Z,14811.00
2023-05-17T15:09:16.933Z,17589.00
2023-05-17T15:10:31.880Z,12813.00
2023-05-17T15:11:46.741Z,11288.00
2023-05-17T15:13:01.682Z,11511.00